GUANICA PR US current weather conditions

sailwx.info

Wind from 081 at 6 knots gusting 16

Air temperature 28.3° C
Dewpoint 20.3° C

Last reported at 2018-Feb-21 21:09 UTC.
Time now 2018-Feb-21 22:58 UTC

Location: N 17°57' W 066°53'.
View on Google Maps.

See reports from other nearby stations

  
Tides and Currents Weather Stations Pressure Air Temp Water Temp Dewpoint Dewpoint Depression Visibility Wind Speed Wind Dir Waves Ship Positions
date/time (UTC)wind fromknots sea level pressurealtimeterstation pressurevisibilityair tempwater tempwave heightnotes
2018-Feb-21 21:09 081 6 gusting 16 28.3
2018-Feb-21 20:09 096 6 gusting 13 29.4
2018-Feb-21 19:09 076 10 gusting 20 26.7
2018-Feb-21 18:09 093 8 gusting 19 28.9
2018-Feb-21 17:09 097 8 gusting 18 30.0
2018-Feb-21 16:09 114 7 gusting 15 30.6
2018-Feb-21 15:09 102 6 gusting 16 30.6
2018-Feb-21 14:09 102 7 gusting 18 29.4
2018-Feb-21 13:09 086 8 gusting 16 28.3
2018-Feb-21 12:09 072 6 gusting 15 26.1
2018-Feb-21 11:09 073 1 gusting 6 22.2
2018-Feb-21 10:09 055 3 gusting 6 23.3
2018-Feb-21 09:09 077 0 gusting 5 22.8
2018-Feb-21 08:09 064 2 gusting 8 23.3
2018-Feb-21 07:09 053 4 gusting 9 23.9
2018-Feb-21 06:09 042 4 gusting 8 23.3
2018-Feb-21 05:09 045 4 gusting 8 23.9
2018-Feb-21 04:09 034 2 gusting 6 23.3
2018-Feb-21 03:09 047 4 gusting 9 24.4
2018-Feb-21 02:09 067 4 gusting 7 24.4
2018-Feb-21 01:09 033 3 gusting 6 24.4
2018-Feb-21 00:09 040 3 gusting 7 25.6
2018-Feb-20 23:09 048 3 gusting 9 26.1
2018-Feb-20 22:09 048 6 gusting 13 28.9
2018-Feb-20 21:09 056 6 gusting 17 31.1
2018-Feb-20 20:09 054 7 gusting 13 31.7
2018-Feb-20 19:09 112 4 gusting 12 29.4
2018-Feb-20 18:09 113 5 gusting 12 29.4
2018-Feb-20 17:09 108 5 gusting 11 29.4
2018-Feb-20 16:09 107 6 gusting 14 29.4
2018-Feb-20 15:09 108 5 gusting 10 30.0
2018-Feb-20 14:09 120 5 gusting 11 29.4
2018-Feb-20 13:09 102 4 gusting 10 27.8
2018-Feb-20 12:09 048 3 gusting 8 26.1
2018-Feb-20 11:09 065 5 gusting 10 22.2
2018-Feb-20 10:09 042 3 gusting 6 23.3
2018-Feb-20 09:09 045 3 gusting 9 23.3
2018-Feb-20 08:09 063 5 gusting 9 23.9
2018-Feb-20 07:09 047 3 gusting 7 23.3
2018-Feb-20 06:09 060 3 gusting 7 23.9
2018-Feb-20 05:09 058 3 gusting 6 24.4
2018-Feb-20 04:09 035 2 gusting 8 23.9
2018-Feb-20 03:09 064 4 gusting 9 24.4
2018-Feb-20 02:09 064 4 gusting 13 24.4
2018-Feb-20 01:09 064 4 gusting 10 25.0
2018-Feb-20 00:09 067 4 gusting 14 25.6
2018-Feb-19 23:09 087 6 gusting 15 26.1
2018-Feb-19 22:09 088 8 gusting 19 26.7